Tropical Cyclones
[Index]
Main Index Home Page Stock Weather Photos Extreme Storms Discussion Storm News and Storm Chasing Reports Tropical Cyclones / Hurricanes / Typhoons Weather Data and Links Wild Fires / Bushfires Weather Observation Techniques Weather Picture Catalogue Tornado Pictures and Reports Stock Video Footage and DVDs for sale
Season 1954-1955 Tropical Cyclone 195522 Track Map
Season 1954-1955 Summaries: [BoM-AU] [JTWC-AU] [JTWC-SIO] [JTWC-SPAC] [JTWC-SH]
<<- Previous TC | JTWC 1954-1955 Season | Next TC ->>

click for intensity scale information  Lat/long Grid: Show Hide

 Date Labels: Show Hide

Joint Typhoon Warning Centre Cyclone Data

Name: 195522
Number: 238 / 5522

23 Mar 1955 12:00 UTC to 07 Apr 1955 00:00 UTC

    date/time    lat    long     hPa   cat  kts
1955-03-23 12   12.0   157.0                              
1955-03-23 18   12.5   157.1                              
1955-03-24 00   13.0   157.3                              
1955-03-24 06   13.6   157.5                              
1955-03-24 12   14.2   157.8                              
1955-03-24 18   14.7   157.9                              
1955-03-25 00   15.3   157.8                              
1955-03-25 06   16.5   157.6                              
1955-03-25 12   18.0   157.0                              
1955-03-25 18   19.3   156.2                              
1955-03-26 00   20.4   155.4                              
1955-03-26 06   21.3   154.6                              
1955-03-26 12   22.0   153.8                              
1955-03-26 18   22.6   152.6                              
1955-03-27 00   23.2   151.4                              
1955-03-27 06   23.7   150.4                              
1955-03-27 12   24.1   149.5                              
1955-03-27 18   24.6   148.5                              
1955-03-28 00   25.2   147.5                              
1955-03-28 06   27.0   147.7                              
1955-03-28 12   28.8   149.5                              
1955-03-28 18   29.1   151.7                              
1955-03-29 00   29.0   153.8                              
1955-03-29 06   28.8   155.9                              
1955-03-29 12   28.3   158.0                              
1955-03-29 18   27.2   160.0                              
1955-03-30 00   26.0   161.6                              
1955-03-30 06   25.0   162.7                              
1955-03-30 12   24.2   163.8                              
1955-03-30 18   23.6   165.0                              
1955-03-31 00   23.2   166.2                              
1955-03-31 06   23.1   167.3                              
1955-03-31 12   23.3   168.2                              
1955-03-31 18   23.8   168.7                              
1955-04-01 00   24.4   168.4                              
1955-04-01 06   24.7   167.7                              
1955-04-01 12   24.8   166.9                              
1955-04-01 18   24.5   166.0                              
1955-04-02 00   24.2   165.0                              
1955-04-02 06   24.0   163.7                              
1955-04-02 12   24.0   162.3                              
1955-04-02 18   24.5   160.9                              
1955-04-03 00   25.0   159.5                              
1955-04-03 06   25.4   158.6                              
1955-04-03 12   25.7   158.0                              
1955-04-03 18   25.9   157.0                              
1955-04-04 00   26.2   156.1                              
1955-04-04 06   27.0   155.6                              
1955-04-04 12   28.0   155.3                              
1955-04-04 18   29.0   155.1                              
1955-04-05 00   30.0   155.1                              
1955-04-05 06   31.0   155.3                              
1955-04-05 12   32.0   155.6                              
1955-04-05 18   32.8   156.0                              
1955-04-06 00   33.6   156.4                              
1955-04-06 06   34.6   157.0                              
1955-04-06 12   35.6   157.6                              
1955-04-06 18   36.4   158.1                              
1955-04-07 00   37.1   158.6                              
Winds are 1-min average.

Tropical cyclone tracks developed by Michael Bath using data from the Joint Typhoon Warning Centre Best Tracks and Google Maps.


[Australian Severe Weather index] [Copyright Notice] [Email Contacts] [Search This Site] [Privacy Policy]
Document: tropical_cyclone_195522.htm Updated: 18 September 2016